This is the latest recevied weather packets stored in our database for station/object KI5NXU. If no packets are shown the sender has not sent any weather packets the latest 1 day(s).
| Time | Temp. | Humidity | Pressure | Rain* | Wind** | Luminosity | Snow |
|---|---|---|---|---|---|---|---|
| 1778036142 | 15.56° C | 78% | 1009.3 hPa | 0 mm | 0.45 m/s, 99° | 0 W/m² | - |
| 1778035838 | 16.11° C | 77% | 1009.3 hPa | 0 mm | 0.89 m/s, 74° | 0 W/m² | - |
| 1778035535 | 16.11° C | 78% | 1009 hPa | 0 mm | 0 m/s | 0 W/m² | - |
| 1778035231 | 16.11° C | 78% | 1008.4 hPa | 0 mm | 2.24 m/s, 329° | 0 W/m² | - |
| 1778034928 | 16.67° C | 77% | 1008.7 hPa | 0 mm | 0.45 m/s, 6° | 0 W/m² | - |
| 1778034635 | 16.67° C | 76% | 1008.4 hPa | 0 mm | 0 m/s | 0 W/m² | - |
| 1778034323 | 16.67° C | 76% | 1008.4 hPa | 0 mm | 1.34 m/s, 25° | 0 W/m² | - |
| 1778034020 | 17.22° C | 76% | 1008.3 hPa | 0 mm | 0.89 m/s, 51° | 0 W/m² | - |
| 1778033717 | 17.22° C | 76% | 1008.2 hPa | 0 mm | 1.34 m/s, 73° | 0 W/m² | - |
| 1778033415 | 17.78° C | 75% | 1008.4 hPa | 0 mm | 3.13 m/s, 322° | 0 W/m² | - |
| 1778033112 | 18.33° C | 74% | 1007.8 hPa | 0 mm | 0 m/s | 0 W/m² | - |
| 1778032810 | 18.89° C | 74% | 1007.7 hPa | 0 mm | 2.68 m/s, 34° | 0 W/m² | - |
| 1778032507 | 18.89° C | 73% | 1007.4 hPa | 0 mm | 2.68 m/s, 70° | 0 W/m² | - |
| 1778032203 | 19.44° C | 72% | 1007.1 hPa | 0 mm | 0 m/s | 0 W/m² | - |
| 1778031901 | 19.44° C | 71% | 1006.9 hPa | 0 mm | 0 m/s | 0 W/m² | - |
| 1778031597 | 19.44° C | 70% | 1006.8 hPa | 0 mm | 0.45 m/s, 41° | 0 W/m² | - |
| 1778031295 | 20° C | 70% | 1006.5 hPa | 0 mm | 0 m/s | 0 W/m² | - |
| 1778030990 | 20° C | 70% | 1006.4 hPa | 0 mm | 0 m/s | 0 W/m² | - |
| 1778030687 | 20.56° C | 69% | 1006.6 hPa | 0 mm | 0 m/s | 0 W/m² | - |
| 1778030384 | 20.56° C | 68% | 1006.7 hPa | 0 mm | 0 m/s | 0 W/m² | - |
| 1778030082 | 21.11° C | 67% | 1006.5 hPa | 0 mm | 0 m/s | 2 W/m² | - |
| 1778029778 | 21.11° C | 66% | 1006.4 hPa | 0 mm | 0 m/s | 4 W/m² | - |
| 1778029477 | 21.11° C | 65% | 1006.6 hPa | 0 mm | 0 m/s | 8 W/m² | - |
| 1778029173 | 21.11° C | 65% | 1006.6 hPa | 0 mm | 0 m/s | 13 W/m² | - |
| 1778028871 | 21.67° C | 64% | 1006.1 hPa | 0 mm | 0 m/s | 20 W/m² | - |
* Rain latest hour (hover to see other rain measurements)
** Current wind speed in m/s (hover to see current wind gust speed)